createdAt,value
2024-01-06T00:02:25.871Z,6.47
2024-01-06T00:04:55.422Z,6.67
2024-01-06T00:07:22.463Z,6.63
2024-01-06T00:09:49.648Z,6.59
2024-01-06T00:12:16.666Z,6.41
2024-01-06T00:14:43.839Z,6.54
2024-01-06T00:17:10.861Z,6.60
2024-01-06T00:19:38.003Z,6.45
2024-01-06T00:22:07.742Z,6.51
2024-01-06T00:24:34.719Z,6.45
2024-01-06T00:27:01.800Z,6.58
2024-01-06T00:29:28.827Z,6.47
2024-01-06T00:31:55.867Z,6.41
2024-01-06T00:34:22.974Z,6.39
2024-01-06T00:36:50.052Z,6.46
2024-01-06T00:39:21.663Z,6.46
2024-01-06T00:41:48.724Z,6.28
2024-01-06T00:44:15.724Z,6.30
2024-01-06T00:46:42.757Z,6.44
2024-01-06T00:49:09.797Z,6.31
2024-01-06T00:51:39.814Z,6.41
2024-01-06T00:54:07.403Z,6.41
2024-01-06T00:56:36.965Z,6.28
2024-01-06T00:59:04.058Z,6.27
2024-01-06T01:01:31.155Z,6.33
2024-01-06T01:03:58.273Z,6.29
2024-01-06T01:06:25.331Z,6.27
2024-01-06T01:08:52.296Z,6.46
2024-01-06T01:11:20.656Z,6.14
2024-01-06T01:13:50.349Z,6.08
2024-01-06T01:16:17.433Z,6.21
2024-01-06T01:18:44.465Z,6.21
2024-01-06T01:21:11.676Z,6.15
2024-01-06T01:23:38.852Z,6.13
2024-01-06T01:26:05.828Z,6.19
2024-01-06T01:28:32.834Z,6.16
2024-01-06T01:31:02.718Z,6.20
2024-01-06T01:33:29.877Z,6.05
2024-01-06T01:35:58.842Z,6.03
2024-01-06T01:38:27.141Z,6.06
2024-01-06T01:40:54.152Z,6.02
2024-01-06T01:43:21.282Z,6.09
2024-01-06T01:45:54.401Z,6.02
2024-01-06T01:48:26.302Z,6.22
2024-01-06T01:50:54.993Z,5.92
2024-01-06T01:53:24.337Z,5.78
2024-01-06T01:55:52.119Z,5.91
2024-01-06T01:58:19.769Z,6.05
2024-01-06T02:00:47.363Z,6.15
2024-01-06T02:03:14.950Z,5.95
2024-01-06T02:05:44.688Z,6.02
2024-01-06T02:08:11.804Z,6.11
2024-01-06T02:10:39.018Z,5.87
2024-01-06T02:13:10.272Z,6.04
2024-01-06T02:15:37.531Z,6.20
2024-01-06T02:18:05.280Z,6.10
2024-01-06T02:20:32.818Z,5.97
2024-01-06T02:23:02.515Z,6.11
2024-01-06T02:25:29.917Z,6.11
2024-01-06T02:27:57.098Z,5.90
2024-01-06T02:30:24.220Z,5.92
2024-01-06T02:32:51.312Z,5.82
2024-01-06T02:35:18.346Z,5.79
2024-01-06T02:37:45.349Z,5.87
2024-01-06T02:40:15.486Z,5.79
2024-01-06T02:42:42.584Z,5.81
2024-01-06T02:45:10.168Z,5.78
2024-01-06T02:47:37.272Z,5.88
2024-01-06T02:50:05.393Z,5.81
2024-01-06T02:52:32.435Z,6.04
2024-01-06T02:54:59.685Z,6.14
2024-01-06T02:57:29.356Z,5.99
2024-01-06T02:59:56.411Z,5.90
2024-01-06T03:02:23.601Z,5.71
2024-01-06T03:04:50.730Z,5.82
2024-01-06T03:07:17.751Z,5.75
2024-01-06T03:09:44.895Z,5.95
2024-01-06T03:12:12.013Z,5.78
2024-01-06T03:14:41.613Z,5.55
2024-01-06T03:17:08.674Z,5.55
2024-01-06T03:19:35.828Z,5.85
2024-01-06T03:22:02.888Z,5.79
2024-01-06T03:24:30.016Z,5.69
2024-01-06T03:26:57.024Z,5.77
2024-01-06T03:29:24.092Z,5.91
2024-01-06T03:31:53.687Z,5.91
2024-01-06T03:34:20.768Z,5.80
2024-01-06T03:36:47.892Z,5.84
2024-01-06T03:39:15.139Z,5.76
2024-01-06T03:41:42.246Z,5.74
2024-01-06T03:44:09.456Z,5.90
2024-01-06T03:46:36.962Z,5.91
2024-01-06T03:49:06.704Z,5.79
2024-01-06T03:51:33.915Z,5.65
2024-01-06T03:54:01.021Z,5.60
2024-01-06T03:56:28.045Z,5.63
2024-01-06T03:58:55.043Z,5.67
2024-01-06T04:01:22.269Z,5.60
2024-01-06T04:03:49.478Z,5.74
2024-01-06T04:06:19.457Z,5.76
2024-01-06T04:08:46.479Z,5.78
2024-01-06T04:11:13.461Z,5.74
2024-01-06T04:13:40.446Z,5.85
2024-01-06T04:16:07.561Z,5.84
2024-01-06T04:18:34.789Z,5.90
2024-01-06T04:21:01.850Z,5.90
2024-01-06T04:23:31.447Z,5.90
2024-01-06T04:25:58.556Z,5.83
2024-01-06T04:28:25.578Z,5.83
2024-01-06T04:30:53.245Z,5.86
2024-01-06T04:33:20.605Z,5.87
2024-01-06T04:35:47.693Z,5.82
2024-01-06T04:38:14.715Z,5.74
2024-01-06T04:40:44.543Z,5.81
2024-01-06T04:43:11.564Z,5.76
2024-01-06T04:45:38.598Z,5.81
2024-01-06T04:48:07.115Z,5.75
2024-01-06T04:50:34.158Z,5.58
2024-01-06T04:53:01.139Z,5.59
2024-01-06T04:55:28.150Z,5.62
2024-01-06T04:57:57.870Z,5.67
2024-01-06T05:00:24.954Z,5.68
2024-01-06T05:02:52.062Z,5.53
2024-01-06T05:05:19.193Z,5.64
2024-01-06T05:07:46.172Z,5.71
2024-01-06T05:10:13.281Z,5.76
2024-01-06T05:12:40.296Z,5.66
2024-01-06T05:15:10.730Z,5.51
2024-01-06T05:17:37.864Z,5.41
2024-01-06T05:20:06.446Z,5.54
2024-01-06T05:22:33.393Z,5.69
2024-01-06T05:25:00.381Z,5.67
2024-01-06T05:27:27.404Z,5.74
2024-01-06T05:29:54.466Z,5.53
2024-01-06T05:32:24.085Z,5.65
2024-01-06T05:34:51.336Z,5.63
2024-01-06T05:37:18.594Z,5.67
2024-01-06T05:39:45.601Z,5.62
2024-01-06T05:42:14.243Z,5.62
2024-01-06T05:44:41.265Z,5.65
2024-01-06T05:47:08.300Z,5.68
2024-01-06T05:49:42.366Z,5.70
2024-01-06T05:52:09.375Z,5.87
2024-01-06T05:54:41.142Z,5.89
2024-01-06T05:57:08.160Z,5.82
2024-01-06T05:59:35.212Z,5.79
2024-01-06T06:02:02.363Z,5.82
2024-01-06T06:04:29.523Z,5.80
2024-01-06T06:07:02.276Z,5.83
2024-01-06T06:09:29.756Z,5.75
2024-01-06T06:11:56.826Z,5.79
2024-01-06T06:14:26.499Z,5.84
2024-01-06T06:16:55.156Z,5.91
2024-01-06T06:19:22.241Z,6.00
2024-01-06T06:21:49.428Z,5.89
2024-01-06T06:24:19.132Z,5.97
2024-01-06T06:26:46.180Z,6.01
2024-01-06T06:29:13.249Z,5.91
2024-01-06T06:31:40.513Z,5.92
2024-01-06T06:34:09.286Z,5.78
2024-01-06T06:36:36.686Z,5.88
2024-01-06T06:39:03.943Z,5.92
2024-01-06T06:41:33.487Z,5.91
2024-01-06T06:44:01.138Z,5.84
2024-01-06T06:46:28.185Z,5.85
2024-01-06T06:48:55.301Z,5.92
2024-01-06T06:51:22.328Z,5.90
2024-01-06T06:53:51.198Z,6.00
2024-01-06T06:56:18.639Z,6.13
2024-01-06T06:58:48.423Z,6.00
2024-01-06T07:01:15.604Z,5.90
2024-01-06T07:03:43.173Z,5.89
2024-01-06T07:06:13.234Z,6.05
2024-01-06T07:08:40.413Z,6.00
2024-01-06T07:11:07.454Z,6.05
2024-01-06T07:13:34.504Z,5.99
2024-01-06T07:16:14.421Z,6.01
2024-01-06T07:18:45.382Z,6.03
2024-01-06T07:21:13.664Z,6.06
2024-01-06T07:23:41.144Z,6.06
2024-01-06T07:26:08.212Z,6.00
2024-01-06T07:28:35.233Z,5.99
2024-01-06T07:31:05.129Z,6.09
2024-01-06T07:33:32.548Z,6.07
2024-01-06T07:35:59.685Z,5.96
2024-01-06T07:38:26.700Z,6.07
2024-01-06T07:40:53.676Z,5.95
2024-01-06T07:43:20.720Z,5.93
2024-01-06T07:45:47.816Z,6.03
2024-01-06T07:48:17.803Z,6.08
2024-01-06T07:50:44.880Z,6.04
2024-01-06T07:53:11.942Z,6.05
2024-01-06T07:55:38.925Z,6.05
2024-01-06T07:58:05.962Z,6.08
2024-01-06T08:00:33.154Z,6.10
2024-01-06T08:03:00.203Z,6.12
2024-01-06T08:05:29.879Z,6.15
2024-01-06T08:07:58.990Z,6.09
2024-01-06T08:10:26.048Z,6.24
2024-01-06T08:12:53.154Z,6.32
2024-01-06T08:15:20.311Z,6.42
2024-01-06T08:17:49.311Z,6.32
2024-01-06T08:20:16.617Z,6.15
2024-01-06T08:22:46.191Z,6.24
2024-01-06T08:25:14.368Z,6.17
2024-01-06T08:27:41.487Z,6.27
2024-01-06T08:30:09.861Z,6.36
2024-01-06T08:32:37.061Z,6.28
2024-01-06T08:35:04.803Z,6.19
2024-01-06T08:37:32.014Z,6.31
2024-01-06T08:40:01.799Z,6.29
2024-01-06T08:42:28.863Z,6.34
2024-01-06T08:44:55.908Z,6.35
2024-01-06T08:47:22.980Z,6.35
2024-01-06T08:49:50.115Z,6.39
2024-01-06T08:52:17.164Z,6.19
2024-01-06T08:54:44.210Z,6.14
2024-01-06T08:57:13.950Z,6.10
2024-01-06T08:59:40.925Z,6.08
2024-01-06T09:02:08.003Z,6.12
2024-01-06T09:04:35.045Z,6.17
2024-01-06T09:07:02.105Z,6.35
2024-01-06T09:09:29.272Z,6.22
2024-01-06T09:11:56.396Z,6.25
2024-01-06T09:14:26.725Z,6.34
2024-01-06T09:16:53.748Z,6.06
2024-01-06T09:19:20.804Z,6.18
2024-01-06T09:21:47.922Z,6.24
2024-01-06T09:24:15.058Z,6.33
2024-01-06T09:26:42.162Z,6.38
2024-01-06T09:29:10.802Z,6.27
2024-01-06T09:31:41.819Z,6.23
2024-01-06T09:34:11.205Z,6.15
2024-01-06T09:36:38.345Z,6.06
2024-01-06T09:39:05.580Z,6.19
2024-01-06T09:41:33.049Z,6.31
2024-01-06T09:44:00.075Z,6.41
2024-01-06T09:46:28.301Z,6.32
2024-01-06T09:48:58.655Z,6.32
2024-01-06T09:51:26.192Z,6.44
2024-01-06T09:53:59.184Z,6.44
2024-01-06T09:56:27.747Z,6.64
2024-01-06T09:58:55.448Z,6.37
2024-01-06T10:01:23.612Z,6.28
2024-01-06T10:03:51.052Z,6.29
2024-01-06T10:06:21.049Z,6.30
2024-01-06T10:08:50.849Z,6.39
2024-01-06T10:11:18.206Z,6.53
2024-01-06T10:13:45.279Z,6.55
2024-01-06T10:16:12.370Z,6.46
2024-01-06T10:18:40.464Z,6.14
2024-01-06T10:21:09.757Z,6.29
2024-01-06T10:23:39.381Z,6.38
2024-01-06T10:26:06.502Z,6.31
2024-01-06T10:28:33.797Z,6.46
2024-01-06T10:31:01.253Z,6.53
2024-01-06T10:33:28.595Z,6.58
2024-01-06T10:35:56.337Z,6.80
2024-01-06T10:38:23.445Z,6.54
2024-01-06T10:41:12.762Z,6.53
2024-01-06T10:43:39.936Z,6.61
2024-01-06T10:46:07.985Z,6.30
2024-01-06T10:48:36.908Z,6.48
2024-01-06T10:51:05.211Z,6.40
2024-01-06T10:53:33.973Z,6.30
2024-01-06T10:56:02.754Z,6.31
2024-01-06T10:58:33.957Z,6.36
2024-01-06T11:01:02.038Z,6.48
2024-01-06T11:03:30.825Z,6.50
2024-01-06T11:06:00.925Z,6.75
2024-01-06T11:08:31.149Z,6.62
2024-01-06T11:10:58.644Z,6.63
2024-01-06T11:13:25.804Z,6.75
2024-01-06T11:15:55.670Z,6.78
2024-01-06T11:18:34.470Z,6.66
2024-01-06T11:21:17.473Z,6.61
2024-01-06T11:23:44.617Z,6.78
2024-01-06T11:26:12.073Z,6.82
2024-01-06T11:28:45.774Z,6.76
2024-01-06T11:31:15.796Z,6.79
2024-01-06T11:33:43.498Z,6.60
2024-01-06T11:36:10.671Z,6.58
2024-01-06T11:38:39.644Z,6.59
2024-01-06T11:41:08.324Z,6.59
2024-01-06T11:43:36.439Z,6.54
2024-01-06T11:46:03.695Z,6.62
2024-01-06T11:48:34.381Z,6.64
2024-01-06T11:51:02.262Z,6.59
2024-01-06T11:53:29.981Z,6.74
2024-01-06T11:55:57.094Z,6.63
2024-01-06T11:58:24.086Z,6.58
2024-01-06T12:00:57.489Z,6.68
2024-01-06T12:03:24.678Z,6.50
2024-01-06T12:06:04.426Z,6.54
2024-01-06T12:08:31.546Z,6.57
2024-01-06T12:11:05.223Z,6.58
2024-01-06T12:13:32.886Z,6.46
2024-01-06T12:16:00.757Z,6.66
2024-01-06T12:18:27.943Z,6.51
2024-01-06T12:20:55.401Z,6.59
2024-01-06T12:23:29.482Z,6.69
2024-01-06T12:25:56.896Z,6.67
2024-01-06T12:28:24.246Z,6.72
2024-01-06T12:30:51.657Z,6.69
2024-01-06T12:33:19.141Z,6.77
2024-01-06T12:35:46.423Z,6.58
2024-01-06T12:38:13.430Z,6.78
2024-01-06T12:40:43.154Z,6.69
2024-01-06T12:43:10.239Z,6.92
2024-01-06T12:45:37.473Z,6.80
2024-01-06T12:48:05.223Z,6.82
2024-01-06T12:50:32.274Z,6.82
2024-01-06T12:52:59.348Z,6.96
2024-01-06T12:55:26.387Z,7.03
2024-01-06T12:57:56.193Z,6.81
2024-01-06T13:00:23.332Z,6.78
2024-01-06T13:02:50.425Z,7.09
2024-01-06T13:05:17.674Z,6.91
2024-01-06T13:07:44.839Z,6.85
2024-01-06T13:10:11.969Z,6.80
2024-01-06T13:12:39.041Z,6.87
2024-01-06T13:15:09.830Z,6.86
2024-01-06T13:17:36.980Z,6.88
2024-01-06T13:20:04.922Z,6.89
2024-01-06T13:22:32.005Z,6.98
2024-01-06T13:24:59.482Z,6.95
2024-01-06T13:27:26.755Z,6.68
2024-01-06T13:29:53.951Z,6.75
2024-01-06T13:32:23.787Z,6.66
2024-01-06T13:34:51.055Z,6.69
2024-01-06T13:37:21.029Z,6.69
2024-01-06T13:39:48.343Z,6.86
2024-01-06T13:42:17.678Z,6.90
2024-01-06T13:44:46.329Z,6.91
2024-01-06T13:47:13.473Z,6.80
2024-01-06T13:49:43.284Z,6.78
2024-01-06T13:52:10.604Z,6.89
2024-01-06T13:54:38.074Z,6.95
2024-01-06T13:57:05.495Z,6.82
2024-01-06T13:59:32.529Z,6.83
2024-01-06T14:02:00.029Z,6.82
2024-01-06T14:04:27.363Z,6.66
2024-01-06T14:06:57.306Z,6.85
2024-01-06T14:09:24.567Z,6.66
2024-01-06T14:11:51.858Z,6.73
2024-01-06T14:14:18.893Z,6.58
2024-01-06T14:16:45.944Z,6.59
2024-01-06T14:19:13.330Z,6.69
2024-01-06T14:21:40.660Z,6.77
2024-01-06T14:24:10.638Z,6.99
2024-01-06T14:26:37.817Z,6.92
2024-01-06T14:29:04.863Z,6.76
2024-01-06T14:31:32.002Z,6.70
2024-01-06T14:34:00.977Z,6.58
2024-01-06T14:36:28.532Z,6.75
2024-01-06T14:38:55.528Z,6.68
2024-01-06T14:41:25.184Z,6.71
2024-01-06T14:43:52.209Z,6.57
2024-01-06T14:46:19.484Z,6.50
2024-01-06T14:48:46.710Z,6.58
2024-01-06T14:51:14.296Z,6.57
2024-01-06T14:53:47.292Z,6.69
2024-01-06T14:56:14.456Z,6.76
2024-01-06T14:58:44.140Z,6.57
2024-01-06T15:01:11.236Z,6.51
2024-01-06T15:03:38.502Z,6.59
2024-01-06T15:06:06.013Z,6.62
2024-01-06T15:08:33.280Z,6.73
2024-01-06T15:11:00.388Z,6.64
2024-01-06T15:13:27.496Z,6.56
2024-01-06T15:15:57.125Z,6.47
2024-01-06T15:18:25.248Z,6.63
2024-01-06T15:20:52.511Z,6.78
2024-01-06T15:23:19.625Z,6.54
2024-01-06T15:25:46.775Z,6.52
2024-01-06T15:28:13.949Z,6.74
2024-01-06T15:30:41.320Z,6.84
2024-01-06T15:33:11.683Z,6.71
2024-01-06T15:35:39.109Z,6.82
2024-01-06T15:38:06.510Z,6.83
2024-01-06T15:40:33.860Z,6.72
2024-01-06T15:43:02.710Z,6.58
2024-01-06T15:45:33.465Z,6.48
2024-01-06T15:48:05.056Z,6.46
2024-01-06T15:50:36.545Z,6.66
2024-01-06T15:53:06.673Z,6.73
2024-01-06T15:55:34.032Z,6.71
2024-01-06T15:58:01.078Z,6.89
2024-01-06T16:00:28.292Z,6.85
2024-01-06T16:02:56.268Z,6.86
2024-01-06T16:05:24.426Z,6.78
2024-01-06T16:07:55.815Z,6.64
2024-01-06T16:10:31.557Z,6.53
2024-01-06T16:12:58.774Z,6.60
2024-01-06T16:15:25.989Z,6.78
2024-01-06T16:17:53.103Z,6.61
2024-01-06T16:20:20.213Z,6.75
2024-01-06T16:22:47.364Z,6.64
2024-01-06T16:25:17.229Z,6.54
2024-01-06T16:27:44.460Z,6.62
2024-01-06T16:30:12.776Z,6.78
2024-01-06T16:32:39.958Z,6.84
2024-01-06T16:35:07.978Z,6.70
2024-01-06T16:37:35.489Z,6.69
2024-01-06T16:40:02.723Z,6.69
2024-01-06T16:42:32.732Z,6.87
2024-01-06T16:44:59.967Z,6.88
2024-01-06T16:47:27.060Z,6.84
2024-01-06T16:49:54.182Z,6.72
2024-01-06T16:52:21.269Z,6.93
2024-01-06T16:54:48.428Z,6.96
2024-01-06T16:57:17.438Z,6.78
2024-01-06T16:59:48.938Z,6.67
2024-01-06T17:02:16.301Z,6.68
2024-01-06T17:04:43.587Z,6.90
2024-01-06T17:07:10.751Z,6.99
2024-01-06T17:09:37.778Z,6.68
2024-01-06T17:12:05.764Z,6.78
2024-01-06T17:14:32.846Z,6.81
2024-01-06T17:17:02.482Z,6.77
2024-01-06T17:19:29.874Z,6.86
2024-01-06T17:21:57.016Z,7.12
2024-01-06T17:24:24.079Z,7.17
2024-01-06T17:26:51.481Z,6.95
2024-01-06T17:29:18.573Z,6.69
2024-01-06T17:31:45.698Z,6.58
2024-01-06T17:34:15.714Z,6.62
2024-01-06T17:36:42.949Z,6.86
2024-01-06T17:39:10.062Z,6.93
2024-01-06T17:41:43.014Z,6.65
2024-01-06T17:44:13.123Z,6.85
2024-01-06T17:46:40.259Z,6.98
2024-01-06T17:49:07.571Z,6.88
2024-01-06T17:51:37.462Z,6.85
2024-01-06T17:54:04.616Z,6.92
2024-01-06T17:56:31.648Z,6.66
2024-01-06T17:58:58.851Z,6.68
2024-01-06T18:01:25.957Z,6.62
2024-01-06T18:03:53.111Z,6.54
2024-01-06T18:06:20.357Z,6.62
2024-01-06T18:08:50.281Z,6.61
2024-01-06T18:11:17.441Z,6.54
2024-01-06T18:13:46.514Z,6.55
2024-01-06T18:16:13.891Z,6.63
2024-01-06T18:18:41.127Z,6.62
2024-01-06T18:21:08.235Z,6.59
2024-01-06T18:23:35.252Z,6.43
2024-01-06T18:26:05.066Z,6.51
2024-01-06T18:28:32.140Z,6.43
2024-01-06T18:30:59.328Z,6.40
2024-01-06T18:33:26.747Z,6.52
2024-01-06T18:35:53.852Z,6.52
2024-01-06T18:38:20.895Z,6.52
2024-01-06T18:40:47.972Z,6.48
2024-01-06T18:43:17.548Z,6.46
2024-01-06T18:45:44.683Z,6.45
2024-01-06T18:48:13.791Z,6.44
2024-01-06T18:50:42.372Z,6.59
2024-01-06T18:53:09.395Z,6.42
2024-01-06T18:55:36.461Z,6.49
2024-01-06T18:58:03.706Z,6.54
2024-01-06T19:00:34.004Z,6.56
2024-01-06T19:03:01.308Z,6.46
2024-01-06T19:05:28.562Z,6.49
2024-01-06T19:07:55.716Z,6.71
2024-01-06T19:10:22.805Z,6.79
2024-01-06T19:12:49.899Z,6.74
2024-01-06T19:15:17.037Z,6.90
2024-01-06T19:17:46.781Z,6.97
2024-01-06T19:20:14.159Z,6.93
2024-01-06T19:22:50.806Z,7.03
2024-01-06T19:25:25.147Z,6.68
2024-01-06T19:27:52.216Z,6.74
2024-01-06T19:30:19.477Z,6.85
2024-01-06T19:32:49.218Z,6.89
2024-01-06T19:35:16.430Z,6.81
2024-01-06T19:37:43.413Z,6.81
2024-01-06T19:40:11.082Z,6.93
2024-01-06T19:42:38.247Z,6.79
2024-01-06T19:45:06.091Z,6.72
2024-01-06T19:47:33.143Z,6.71
2024-01-06T19:50:02.982Z,6.72
2024-01-06T19:52:30.067Z,6.79
2024-01-06T19:54:57.198Z,6.78
2024-01-06T19:57:24.321Z,6.69
2024-01-06T19:59:51.359Z,6.78
2024-01-06T20:02:18.460Z,6.76
2024-01-06T20:04:45.630Z,6.77
2024-01-06T20:07:15.472Z,6.77
2024-01-06T20:09:46.889Z,6.81
2024-01-06T20:12:14.279Z,6.69
2024-01-06T20:14:41.277Z,6.73
2024-01-06T20:17:08.307Z,6.65
2024-01-06T20:19:35.462Z,6.66
2024-01-06T20:22:02.667Z,6.61
2024-01-06T20:24:32.668Z,6.64
2024-01-06T20:26:59.870Z,6.67
2024-01-06T20:29:27.107Z,6.52
2024-01-06T20:31:54.356Z,6.41
2024-01-06T20:34:21.649Z,6.42
2024-01-06T20:36:48.864Z,6.44
2024-01-06T20:39:15.894Z,6.38
2024-01-06T20:41:45.508Z,6.44
2024-01-06T20:44:12.600Z,6.37
2024-01-06T20:46:39.708Z,6.34
2024-01-06T20:49:07.076Z,6.33
2024-01-06T20:51:34.379Z,6.41
2024-01-06T20:54:01.494Z,6.50
2024-01-06T20:56:29.822Z,6.42
2024-01-06T20:59:03.912Z,6.45
2024-01-06T21:01:31.359Z,6.41
2024-01-06T21:03:59.642Z,6.25
2024-01-06T21:06:26.890Z,6.25
2024-01-06T21:08:54.049Z,6.24
2024-01-06T21:11:21.311Z,6.10
2024-01-06T21:13:52.226Z,5.97
2024-01-06T21:16:22.216Z,5.90
2024-01-06T21:18:49.355Z,5.99
2024-01-06T21:21:17.113Z,5.83
2024-01-06T21:23:48.209Z,5.98
2024-01-06T21:26:16.508Z,5.96
2024-01-06T21:28:43.536Z,5.88
2024-01-06T21:31:10.781Z,5.94
2024-01-06T21:59:44.585Z,5.67
2024-01-06T22:09:40.310Z,5.49
2024-01-06T22:47:35.477Z,5.75
2024-01-06T22:50:48.073Z,5.75
2024-01-06T22:54:16.853Z,5.72
2024-01-06T23:01:03.622Z,5.77
2024-01-06T23:04:00.086Z,5.78
2024-01-06T23:07:07.430Z,5.72
2024-01-06T23:13:34.272Z,5.79
2024-01-06T23:16:01.546Z,5.65
2024-01-06T23:18:28.719Z,5.69
2024-01-06T23:21:24.786Z,5.84
2024-01-06T23:24:18.674Z,5.76
2024-01-06T23:27:21.317Z,5.79
2024-01-06T23:30:19.463Z,5.78
2024-01-06T23:32:46.740Z,5.91
2024-01-06T23:35:13.923Z,5.90
2024-01-06T23:37:41.492Z,5.80
2024-01-06T23:40:09.859Z,5.66
2024-01-06T23:42:39.586Z,5.72
2024-01-06T23:45:07.042Z,5.82
2024-01-06T23:47:34.131Z,5.72
2024-01-06T23:50:01.274Z,5.74
2024-01-06T23:52:28.270Z,5.89
2024-01-06T23:54:55.351Z,5.78
2024-01-06T23:57:22.515Z,5.81
2024-01-06T23:59:52.162Z,5.74
